sensor_id;sensor_type;location;lat;lon;timestamp;temperature;humidity
43414;DHT22;29013;49.676;8.606;2023-07-13T00:01:44;21.5;70.4
43414;DHT22;29013;49.676;8.606;2023-07-13T00:07:05;21.3;71.5
43414;DHT22;29013;49.676;8.606;2023-07-13T00:12:27;21.2;72.5
43414;DHT22;29013;49.676;8.606;2023-07-13T00:17:45;21.1;73.4
43414;DHT22;29013;49.676;8.606;2023-07-13T00:23:04;21.0;73.8
43414;DHT22;29013;49.676;8.606;2023-07-13T00:28:26;21.0;74.0
43414;DHT22;29013;49.676;8.606;2023-07-13T00:33:46;21.0;72.7
43414;DHT22;29013;49.676;8.606;2023-07-13T00:39:06;21.1;72.2
43414;DHT22;29013;49.676;8.606;2023-07-13T00:44:25;21.1;72.9
43414;DHT22;29013;49.676;8.606;2023-07-13T00:49:48;21.0;71.9
43414;DHT22;29013;49.676;8.606;2023-07-13T00:55:09;20.9;72.0
43414;DHT22;29013;49.676;8.606;2023-07-13T01:00:27;20.8;73.1
43414;DHT22;29013;49.676;8.606;2023-07-13T01:05:46;20.7;73.0
43414;DHT22;29013;49.676;8.606;2023-07-13T01:11:05;20.6;74.0
43414;DHT22;29013;49.676;8.606;2023-07-13T01:16:27;20.5;73.6
43414;DHT22;29013;49.676;8.606;2023-07-13T01:21:49;20.3;74.8
43414;DHT22;29013;49.676;8.606;2023-07-13T01:27:07;20.1;75.9
43414;DHT22;29013;49.676;8.606;2023-07-13T01:32:24;20.1;76.7
43414;DHT22;29013;49.676;8.606;2023-07-13T01:37:45;19.9;78.0
43414;DHT22;29013;49.676;8.606;2023-07-13T01:43:05;19.7;77.8
43414;DHT22;29013;49.676;8.606;2023-07-13T01:48:27;19.6;78.2
43414;DHT22;29013;49.676;8.606;2023-07-13T01:53:47;19.5;78.6
43414;DHT22;29013;49.676;8.606;2023-07-13T01:59:09;19.5;78.9
43414;DHT22;29013;49.676;8.606;2023-07-13T02:04:29;19.4;79.5
43414;DHT22;29013;49.676;8.606;2023-07-13T02:09:49;19.2;80.3
43414;DHT22;29013;49.676;8.606;2023-07-13T02:15:12;19.3;80.2
43414;DHT22;29013;49.676;8.606;2023-07-13T02:20:31;19.3;78.7
43414;DHT22;29013;49.676;8.606;2023-07-13T02:25:55;19.3;79.1
43414;DHT22;29013;49.676;8.606;2023-07-13T02:31:15;19.2;79.5
43414;DHT22;29013;49.676;8.606;2023-07-13T02:36:33;19.1;80.4
43414;DHT22;29013;49.676;8.606;2023-07-13T02:41:55;19.0;80.6
43414;DHT22;29013;49.676;8.606;2023-07-13T02:47:40;18.8;81.1
43414;DHT22;29013;49.676;8.606;2023-07-13T02:52:57;19.0;80.8
43414;DHT22;29013;49.676;8.606;2023-07-13T02:58:17;18.8;81.6
43414;DHT22;29013;49.676;8.606;2023-07-13T03:03:39;18.8;82.9
43414;DHT22;29013;49.676;8.606;2023-07-13T03:08:59;18.6;83.5
43414;DHT22;29013;49.676;8.606;2023-07-13T03:14:19;18.4;83.2
43414;DHT22;29013;49.676;8.606;2023-07-13T03:19:39;18.2;84.7
43414;DHT22;29013;49.676;8.606;2023-07-13T03:24:59;18.2;85.9
43414;DHT22;29013;49.676;8.606;2023-07-13T03:30:21;18.2;85.4
43414;DHT22;29013;49.676;8.606;2023-07-13T03:36:06;18.1;86.2
43414;DHT22;29013;49.676;8.606;2023-07-13T03:41:24;18.3;85.8
43414;DHT22;29013;49.676;8.606;2023-07-13T03:46:46;18.2;86.1
43414;DHT22;29013;49.676;8.606;2023-07-13T03:52:29;18.1;86.9
43414;DHT22;29013;49.676;8.606;2023-07-13T03:57:46;18.2;86.6
43414;DHT22;29013;49.676;8.606;2023-07-13T04:03:05;18.1;86.9
43414;DHT22;29013;49.676;8.606;2023-07-13T04:08:23;18.1;86.8
43414;DHT22;29013;49.676;8.606;2023-07-13T04:13:42;18.1;86.9
43414;DHT22;29013;49.676;8.606;2023-07-13T04:19:03;18.1;87.5
43414;DHT22;29013;49.676;8.606;2023-07-13T04:24:21;18.0;88.0
43414;DHT22;29013;49.676;8.606;2023-07-13T04:29:41;18.0;88.0
43414;DHT22;29013;49.676;8.606;2023-07-13T04:35:00;18.0;88.8
43414;DHT22;29013;49.676;8.606;2023-07-13T04:40:25;18.0;88.8
43414;DHT22;29013;49.676;8.606;2023-07-13T04:45:42;18.1;88.7
43414;DHT22;29013;49.676;8.606;2023-07-13T04:51:00;18.2;88.7
43414;DHT22;29013;49.676;8.606;2023-07-13T04:56:19;18.3;88.6
43414;DHT22;29013;49.676;8.606;2023-07-13T05:01:37;18.3;88.5
43414;DHT22;29013;49.676;8.606;2023-07-13T05:07:13;18.3;89.3
43414;DHT22;29013;49.676;8.606;2023-07-13T05:12:31;18.6;88.1
43414;DHT22;29013;49.676;8.606;2023-07-13T05:17:49;18.6;88.6
43414;DHT22;29013;49.676;8.606;2023-07-13T05:23:07;18.7;89.1
43414;DHT22;29013;49.676;8.606;2023-07-13T05:28:26;18.8;88.8
43414;DHT22;29013;49.676;8.606;2023-07-13T05:33:45;18.8;88.8
43414;DHT22;29013;49.676;8.606;2023-07-13T05:39:04;18.9;88.4
43414;DHT22;29013;49.676;8.606;2023-07-13T05:44:23;19.0;88.2
43414;DHT22;29013;49.676;8.606;2023-07-13T05:49:43;19.1;88.5
43414;DHT22;29013;49.676;8.606;2023-07-13T05:55:08;19.0;86.5
43414;DHT22;29013;49.676;8.606;2023-07-13T06:00:26;18.9;85.1
43414;DHT22;29013;49.676;8.606;2023-07-13T06:05:44;19.1;85.6
43414;DHT22;29013;49.676;8.606;2023-07-13T06:11:10;19.2;85.3
43414;DHT22;29013;49.676;8.606;2023-07-13T06:16:28;19.4;84.5
43414;DHT22;29013;49.676;8.606;2023-07-13T06:21:46;19.5;83.7
43414;DHT22;29013;49.676;8.606;2023-07-13T06:27:07;19.7;84.4
43414;DHT22;29013;49.676;8.606;2023-07-13T06:32:25;19.8;84.8
43414;DHT22;29013;49.676;8.606;2023-07-13T06:37:44;19.9;85.2
43414;DHT22;29013;49.676;8.606;2023-07-13T06:43:04;19.8;85.2
43414;DHT22;29013;49.676;8.606;2023-07-13T06:48:23;19.9;82.6
43414;DHT22;29013;49.676;8.606;2023-07-13T06:53:42;20.1;82.8
43414;DHT22;29013;49.676;8.606;2023-07-13T06:59:01;20.3;81.7
43414;DHT22;29013;49.676;8.606;2023-07-13T07:04:19;20.6;81.5
43414;DHT22;29013;49.676;8.606;2023-07-13T07:09:41;20.7;79.6
43414;DHT22;29013;49.676;8.606;2023-07-13T07:15:07;20.9;79.2
43414;DHT22;29013;49.676;8.606;2023-07-13T07:20:29;21.2;78.8
43414;DHT22;29013;49.676;8.606;2023-07-13T07:25:53;21.3;78.1
43414;DHT22;29013;49.676;8.606;2023-07-13T07:31:25;21.6;78.4
43414;DHT22;29013;49.676;8.606;2023-07-13T07:37:06;22.0;77.2
43414;DHT22;29013;49.676;8.606;2023-07-13T07:42:27;22.5;74.5
43414;DHT22;29013;49.676;8.606;2023-07-13T07:53:16;22.7;73.1
43414;DHT22;29013;49.676;8.606;2023-07-13T07:58:35;22.8;71.8
43414;DHT22;29013;49.676;8.606;2023-07-13T08:03:55;23.0;71.3
43414;DHT22;29013;49.676;8.606;2023-07-13T08:09:15;23.0;71.5
43414;DHT22;29013;49.676;8.606;2023-07-13T08:14:36;23.1;71.4
43414;DHT22;29013;49.676;8.606;2023-07-13T08:19:57;23.1;71.6
43414;DHT22;29013;49.676;8.606;2023-07-13T08:25:17;23.4;71.2
43414;DHT22;29013;49.676;8.606;2023-07-13T08:30:37;23.5;70.9
43414;DHT22;29013;49.676;8.606;2023-07-13T08:35:58;23.4;69.9
43414;DHT22;29013;49.676;8.606;2023-07-13T08:41:17;23.3;68.5
43414;DHT22;29013;49.676;8.606;2023-07-13T08:46:37;23.1;69.6
43414;DHT22;29013;49.676;8.606;2023-07-13T08:51:57;23.0;69.9
43414;DHT22;29013;49.676;8.606;2023-07-13T08:57:19;23.3;69.3
43414;DHT22;29013;49.676;8.606;2023-07-13T09:02:39;23.4;67.6
43414;DHT22;29013;49.676;8.606;2023-07-13T09:08:04;23.7;68.1
43414;DHT22;29013;49.676;8.606;2023-07-13T09:13:26;24.1;66.7
43414;DHT22;29013;49.676;8.606;2023-07-13T09:18:43;24.3;65.8
43414;DHT22;29013;49.676;8.606;2023-07-13T09:24:06;24.3;65.4
43414;DHT22;29013;49.676;8.606;2023-07-13T09:29:26;24.4;64.7
43414;DHT22;29013;49.676;8.606;2023-07-13T09:34:45;24.4;63.8
43414;DHT22;29013;49.676;8.606;2023-07-13T09:40:08;24.3;62.3
43414;DHT22;29013;49.676;8.606;2023-07-13T09:45:30;24.3;62.5
43414;DHT22;29013;49.676;8.606;2023-07-13T09:50:51;24.4;63.1
43414;DHT22;29013;49.676;8.606;2023-07-13T09:56:20;24.4;61.2
43414;DHT22;29013;49.676;8.606;2023-07-13T10:01:38;24.4;59.9
43414;DHT22;29013;49.676;8.606;2023-07-13T10:07:06;24.4;61.2
43414;DHT22;29013;49.676;8.606;2023-07-13T10:12:37;24.7;60.8
43414;DHT22;29013;49.676;8.606;2023-07-13T10:17:59;25.0;60.9
43414;DHT22;29013;49.676;8.606;2023-07-13T10:23:20;25.4;59.8
43414;DHT22;29013;49.676;8.606;2023-07-13T10:28:42;25.6;57.9
43414;DHT22;29013;49.676;8.606;2023-07-13T10:34:42;25.6;57.4
43414;DHT22;29013;49.676;8.606;2023-07-13T10:39:59;25.8;57.2
43414;DHT22;29013;49.676;8.606;2023-07-13T10:45:19;25.6;56.5
43414;DHT22;29013;49.676;8.606;2023-07-13T10:50:39;25.5;57.1
43414;DHT22;29013;49.676;8.606;2023-07-13T10:56:03;25.5;56.8
43414;DHT22;29013;49.676;8.606;2023-07-13T11:01:20;25.6;57.4
43414;DHT22;29013;49.676;8.606;2023-07-13T11:06:41;26.1;56.8
43414;DHT22;29013;49.676;8.606;2023-07-13T11:12:00;26.3;55.6
43414;DHT22;29013;49.676;8.606;2023-07-13T11:23:18;26.6;55.8
43414;DHT22;29013;49.676;8.606;2023-07-13T11:28:35;26.9;55.5
43414;DHT22;29013;49.676;8.606;2023-07-13T11:47:42;30.0;50.5
43414;DHT22;29013;49.676;8.606;2023-07-13T11:52:58;29.0;51.0
43414;DHT22;29013;49.676;8.606;2023-07-13T12:04:35;27.7;52.2
43414;DHT22;29013;49.676;8.606;2023-07-13T12:09:53;27.5;52.8
43414;DHT22;29013;49.676;8.606;2023-07-13T12:15:15;27.7;52.9
43414;DHT22;29013;49.676;8.606;2023-07-13T12:27:00;27.4;51.8
43414;DHT22;29013;49.676;8.606;2023-07-13T12:32:44;27.1;52.8
43414;DHT22;29013;49.676;8.606;2023-07-13T12:38:04;27.1;53.4
43414;DHT22;29013;49.676;8.606;2023-07-13T12:43:23;27.2;53.6
43414;DHT22;29013;49.676;8.606;2023-07-13T12:48:42;27.2;52.7
43414;DHT22;29013;49.676;8.606;2023-07-13T12:54:15;27.3;53.5
43414;DHT22;29013;49.676;8.606;2023-07-13T12:59:32;27.5;51.3
43414;DHT22;29013;49.676;8.606;2023-07-13T13:04:52;27.5;51.1
43414;DHT22;29013;49.676;8.606;2023-07-13T13:10:16;27.4;51.6
43414;DHT22;29013;49.676;8.606;2023-07-13T13:15:33;27.3;52.3
43414;DHT22;29013;49.676;8.606;2023-07-13T13:20:53;27.2;52.4
43414;DHT22;29013;49.676;8.606;2023-07-13T13:26:20;27.1;54.6
43414;DHT22;29013;49.676;8.606;2023-07-13T13:31:39;26.9;52.8
43414;DHT22;29013;49.676;8.606;2023-07-13T13:36:59;26.9;53.7
43414;DHT22;29013;49.676;8.606;2023-07-13T13:42:23;26.9;53.6
43414;DHT22;29013;49.676;8.606;2023-07-13T13:47:47;26.8;53.8
43414;DHT22;29013;49.676;8.606;2023-07-13T13:53:11;26.6;54.0
43414;DHT22;29013;49.676;8.606;2023-07-13T13:58:30;26.6;53.9
43414;DHT22;29013;49.676;8.606;2023-07-13T14:03:51;26.6;53.7
43414;DHT22;29013;49.676;8.606;2023-07-13T14:09:22;26.6;55.0
43414;DHT22;29013;49.676;8.606;2023-07-13T14:14:43;26.8;54.4
43414;DHT22;29013;49.676;8.606;2023-07-13T14:20:09;27.2;55.0
43414;DHT22;29013;49.676;8.606;2023-07-13T14:25:25;27.3;53.0
43414;DHT22;29013;49.676;8.606;2023-07-13T14:30:57;27.2;52.7
43414;DHT22;29013;49.676;8.606;2023-07-13T14:36:50;26.8;52.9
43414;DHT22;29013;49.676;8.606;2023-07-13T14:42:12;26.9;53.2
43414;DHT22;29013;49.676;8.606;2023-07-13T14:47:31;27.1;54.0
43414;DHT22;29013;49.676;8.606;2023-07-13T14:53:07;27.3;53.6
43414;DHT22;29013;49.676;8.606;2023-07-13T14:58:27;27.6;52.2
43414;DHT22;29013;49.676;8.606;2023-07-13T15:03:48;27.3;52.9
43414;DHT22;29013;49.676;8.606;2023-07-13T15:09:09;27.1;52.8
43414;DHT22;29013;49.676;8.606;2023-07-13T15:14:30;26.9;52.9
43414;DHT22;29013;49.676;8.606;2023-07-13T15:19:50;26.7;52.9
43414;DHT22;29013;49.676;8.606;2023-07-13T15:25:16;26.6;52.8
43414;DHT22;29013;49.676;8.606;2023-07-13T15:30:36;26.6;52.9
43414;DHT22;29013;49.676;8.606;2023-07-13T15:35:54;26.8;53.0
43414;DHT22;29013;49.676;8.606;2023-07-13T15:41:37;27.4;51.7
43414;DHT22;29013;49.676;8.606;2023-07-13T15:47:00;27.7;51.6
43414;DHT22;29013;49.676;8.606;2023-07-13T15:52:21;27.7;50.9
43414;DHT22;29013;49.676;8.606;2023-07-13T16:04:01;28.3;49.6
43414;DHT22;29013;49.676;8.606;2023-07-13T16:09:42;27.8;50.3
43414;DHT22;29013;49.676;8.606;2023-07-13T16:15:04;27.7;50.5
43414;DHT22;29013;49.676;8.606;2023-07-13T16:32:39;29.8;45.8
43414;DHT22;29013;49.676;8.606;2023-07-13T16:37:55;28.8;48.5
43414;DHT22;29013;49.676;8.606;2023-07-13T16:43:15;28.1;50.0
43414;DHT22;29013;49.676;8.606;2023-07-13T16:48:33;27.6;50.8
43414;DHT22;29013;49.676;8.606;2023-07-13T16:53:53;27.3;51.0
43414;DHT22;29013;49.676;8.606;2023-07-13T16:59:17;27.2;51.1
43414;DHT22;29013;49.676;8.606;2023-07-13T17:04:35;27.2;51.0
43414;DHT22;29013;49.676;8.606;2023-07-13T17:10:22;26.9;50.8
43414;DHT22;29013;49.676;8.606;2023-07-13T17:15:40;26.9;50.8
43414;DHT22;29013;49.676;8.606;2023-07-13T17:20:59;26.9;50.8
43414;DHT22;29013;49.676;8.606;2023-07-13T17:26:59;26.7;51.0
43414;DHT22;29013;49.676;8.606;2023-07-13T17:32:18;28.2;50.6
43414;DHT22;29013;49.676;8.606;2023-07-13T17:37:38;31.0;47.0
43414;DHT22;29013;49.676;8.606;2023-07-13T17:42:58;30.3;46.2
43414;DHT22;29013;49.676;8.606;2023-07-13T17:48:17;29.3;46.8
43414;DHT22;29013;49.676;8.606;2023-07-13T17:53:35;28.2;48.6
43414;DHT22;29013;49.676;8.606;2023-07-13T17:58:55;28.0;48.8
43414;DHT22;29013;49.676;8.606;2023-07-13T18:04:59;27.3;50.6
43414;DHT22;29013;49.676;8.606;2023-07-13T18:10:18;27.1;50.2
43414;DHT22;29013;49.676;8.606;2023-07-13T18:15:36;26.7;50.9
43414;DHT22;29013;49.676;8.606;2023-07-13T18:20:55;26.5;51.2
43414;DHT22;29013;49.676;8.606;2023-07-13T18:26:15;26.1;51.6
43414;DHT22;29013;49.676;8.606;2023-07-13T18:31:34;25.9;52.2
43414;DHT22;29013;49.676;8.606;2023-07-13T18:36:54;25.7;52.7
43414;DHT22;29013;49.676;8.606;2023-07-13T18:42:15;25.6;53.5
43414;DHT22;29013;49.676;8.606;2023-07-13T18:47:33;25.3;53.4
43414;DHT22;29013;49.676;8.606;2023-07-13T18:52:54;25.1;53.7
43414;DHT22;29013;49.676;8.606;2023-07-13T18:58:37;24.9;54.9
43414;DHT22;29013;49.676;8.606;2023-07-13T19:03:54;24.8;55.4
43414;DHT22;29013;49.676;8.606;2023-07-13T19:09:16;24.5;57.3
43414;DHT22;29013;49.676;8.606;2023-07-13T19:14:35;24.1;59.2
43414;DHT22;29013;49.676;8.606;2023-07-13T19:19:54;23.8;60.3
43414;DHT22;29013;49.676;8.606;2023-07-13T19:25:15;23.5;61.6
43414;DHT22;29013;49.676;8.606;2023-07-13T19:30:33;23.2;63.5
43414;DHT22;29013;49.676;8.606;2023-07-13T19:35:54;22.9;63.5
43414;DHT22;29013;49.676;8.606;2023-07-13T19:41:33;22.6;65.7
43414;DHT22;29013;49.676;8.606;2023-07-13T19:46:53;22.5;65.5
43414;DHT22;29013;49.676;8.606;2023-07-13T19:52:58;22.3;67.2
43414;DHT22;29013;49.676;8.606;2023-07-13T19:58:15;22.3;66.1
43414;DHT22;29013;49.676;8.606;2023-07-13T20:03:35;22.1;67.0
43414;DHT22;29013;49.676;8.606;2023-07-13T20:08:53;21.9;66.9
43414;DHT22;29013;49.676;8.606;2023-07-13T20:14:19;21.8;67.4
43414;DHT22;29013;49.676;8.606;2023-07-13T20:19:36;21.7;68.0
43414;DHT22;29013;49.676;8.606;2023-07-13T20:24:56;21.5;68.6
43414;DHT22;29013;49.676;8.606;2023-07-13T20:30:15;21.4;68.6
43414;DHT22;29013;49.676;8.606;2023-07-13T20:35:34;21.3;68.7
43414;DHT22;29013;49.676;8.606;2023-07-13T20:40:52;21.2;69.7
43414;DHT22;29013;49.676;8.606;2023-07-13T20:46:12;21.1;70.1
43414;DHT22;29013;49.676;8.606;2023-07-13T20:51:30;21.0;70.1
43414;DHT22;29013;49.676;8.606;2023-07-13T20:56:50;20.9;70.9
43414;DHT22;29013;49.676;8.606;2023-07-13T21:02:29;20.8;71.5
43414;DHT22;29013;49.676;8.606;2023-07-13T21:07:47;20.8;71.4
43414;DHT22;29013;49.676;8.606;2023-07-13T21:13:08;20.6;71.8
43414;DHT22;29013;49.676;8.606;2023-07-13T21:18:27;20.5;71.9
43414;DHT22;29013;49.676;8.606;2023-07-13T21:23:47;20.4;72.0
43414;DHT22;29013;49.676;8.606;2023-07-13T21:29:07;20.3;72.5
43414;DHT22;29013;49.676;8.606;2023-07-13T21:34:27;20.3;72.5
43414;DHT22;29013;49.676;8.606;2023-07-13T21:39:49;20.3;72.5
43414;DHT22;29013;49.676;8.606;2023-07-13T21:45:17;20.2;72.5
43414;DHT22;29013;49.676;8.606;2023-07-13T21:50:37;20.2;72.5
43414;DHT22;29013;49.676;8.606;2023-07-13T21:55:56;20.1;72.7
43414;DHT22;29013;49.676;8.606;2023-07-13T22:01:16;20.0;72.9
43414;DHT22;29013;49.676;8.606;2023-07-13T22:06:33;20.0;72.9
43414;DHT22;29013;49.676;8.606;2023-07-13T22:11:53;20.0;73.0
43414;DHT22;29013;49.676;8.606;2023-07-13T22:17:13;20.0;73.2
43414;DHT22;29013;49.676;8.606;2023-07-13T22:22:32;20.0;73.0
43414;DHT22;29013;49.676;8.606;2023-07-13T22:27:50;20.1;73.1
43414;DHT22;29013;49.676;8.606;2023-07-13T22:33:15;20.2;73.0
43414;DHT22;29013;49.676;8.606;2023-07-13T22:38:55;20.1;74.0
43414;DHT22;29013;49.676;8.606;2023-07-13T22:44:17;20.3;72.9
43414;DHT22;29013;49.676;8.606;2023-07-13T22:49:52;20.2;73.5
43414;DHT22;29013;49.676;8.606;2023-07-13T22:55:14;20.3;72.8
43414;DHT22;29013;49.676;8.606;2023-07-13T23:00:34;20.3;72.8
43414;DHT22;29013;49.676;8.606;2023-07-13T23:06:14;20.2;73.5
43414;DHT22;29013;49.676;8.606;2023-07-13T23:11:31;20.3;72.6
43414;DHT22;29013;49.676;8.606;2023-07-13T23:17:38;20.2;73.4
43414;DHT22;29013;49.676;8.606;2023-07-13T23:22:54;20.4;71.8
43414;DHT22;29013;49.676;8.606;2023-07-13T23:28:34;20.3;72.7
43414;DHT22;29013;49.676;8.606;2023-07-13T23:33:52;20.3;72.2
43414;DHT22;29013;49.676;8.606;2023-07-13T23:39:16;20.3;72.5
43414;DHT22;29013;49.676;8.606;2023-07-13T23:44:35;20.2;72.5
43414;DHT22;29013;49.676;8.606;2023-07-13T23:49:54;20.2;73.0
43414;DHT22;29013;49.676;8.606;2023-07-13T23:55:16;20.2;72.9
